sensor_id;sensor_type;location;lat;lon;timestamp;P1;durP1;ratioP1;P2;durP2;ratioP2
8626;SDS011;4351;51.422;6.794;2022-08-05T00:02:22;5.93;;;4.07;;
8626;SDS011;4351;51.422;6.794;2022-08-05T00:04:56;4.60;;;3.80;;
8626;SDS011;4351;51.422;6.794;2022-08-05T00:11:13;5.03;;;3.80;;
8626;SDS011;4351;51.422;6.794;2022-08-05T00:14:03;8.87;;;4.40;;
8626;SDS011;4351;51.422;6.794;2022-08-05T00:16:42;9.67;;;4.87;;
8626;SDS011;4351;51.422;6.794;2022-08-05T00:19:30;8.67;;;4.20;;
8626;SDS011;4351;51.422;6.794;2022-08-05T00:22:31;8.27;;;5.00;;
8626;SDS011;4351;51.422;6.794;2022-08-05T00:25:31;7.37;;;4.27;;
8626;SDS011;4351;51.422;6.794;2022-08-05T00:28:23;9.13;;;4.67;;
8626;SDS011;4351;51.422;6.794;2022-08-05T00:31:24;9.10;;;4.97;;
8626;SDS011;4351;51.422;6.794;2022-08-05T00:37:21;6.93;;;4.40;;
8626;SDS011;4351;51.422;6.794;2022-08-05T00:39:50;6.73;;;4.63;;
8626;SDS011;4351;51.422;6.794;2022-08-05T00:42:37;8.87;;;5.43;;
8626;SDS011;4351;51.422;6.794;2022-08-05T00:45:12;7.13;;;4.47;;
8626;SDS011;4351;51.422;6.794;2022-08-05T00:48:08;8.40;;;5.50;;
8626;SDS011;4351;51.422;6.794;2022-08-05T00:54:01;7.67;;;4.80;;
8626;SDS011;4351;51.422;6.794;2022-08-05T00:56:40;11.77;;;5.57;;
8626;SDS011;4351;51.422;6.794;2022-08-05T00:59:18;7.00;;;5.33;;
8626;SDS011;4351;51.422;6.794;2022-08-05T01:01:48;7.30;;;4.50;;
8626;SDS011;4351;51.422;6.794;2022-08-05T01:04:21;9.07;;;5.03;;
8626;SDS011;4351;51.422;6.794;2022-08-05T01:10:07;6.03;;;4.43;;
8626;SDS011;4351;51.422;6.794;2022-08-05T01:12:44;5.53;;;4.60;;
8626;SDS011;4351;51.422;6.794;2022-08-05T01:15:41;7.30;;;4.50;;
8626;SDS011;4351;51.422;6.794;2022-08-05T01:18:39;7.40;;;4.20;;
8626;SDS011;4351;51.422;6.794;2022-08-05T01:21:31;8.47;;;4.60;;
8626;SDS011;4351;51.422;6.794;2022-08-05T01:24:31;6.33;;;4.23;;
8626;SDS011;4351;51.422;6.794;2022-08-05T01:27:18;6.93;;;5.07;;
8626;SDS011;4351;51.422;6.794;2022-08-05T01:30:45;8.00;;;4.30;;
8626;SDS011;4351;51.422;6.794;2022-08-05T01:33:25;5.87;;;4.00;;
8626;SDS011;4351;51.422;6.794;2022-08-05T01:39:01;8.07;;;5.17;;
8626;SDS011;4351;51.422;6.794;2022-08-05T01:41:40;7.13;;;5.53;;
8626;SDS011;4351;51.422;6.794;2022-08-05T01:44:17;8.67;;;4.97;;
8626;SDS011;4351;51.422;6.794;2022-08-05T01:47:01;9.37;;;4.97;;
8626;SDS011;4351;51.422;6.794;2022-08-05T01:49:32;9.23;;;5.13;;
8626;SDS011;4351;51.422;6.794;2022-08-05T01:52:22;7.30;;;5.20;;
8626;SDS011;4351;51.422;6.794;2022-08-05T01:54:57;6.17;;;5.17;;
8626;SDS011;4351;51.422;6.794;2022-08-05T01:57:50;7.73;;;4.80;;
8626;SDS011;4351;51.422;6.794;2022-08-05T02:00:59;7.17;;;4.67;;
8626;SDS011;4351;51.422;6.794;2022-08-05T02:07:12;7.53;;;5.53;;
8626;SDS011;4351;51.422;6.794;2022-08-05T02:09:51;10.73;;;5.30;;
8626;SDS011;4351;51.422;6.794;2022-08-05T02:12:33;7.80;;;5.03;;
8626;SDS011;4351;51.422;6.794;2022-08-05T02:19:17;8.07;;;4.80;;
8626;SDS011;4351;51.422;6.794;2022-08-05T02:22:07;6.53;;;4.77;;
8626;SDS011;4351;51.422;6.794;2022-08-05T02:25:04;7.53;;;5.00;;
8626;SDS011;4351;51.422;6.794;2022-08-05T02:27:49;7.03;;;5.67;;
8626;SDS011;4351;51.422;6.794;2022-08-05T02:30:30;9.23;;;6.03;;
8626;SDS011;4351;51.422;6.794;2022-08-05T02:33:20;10.00;;;5.83;;
8626;SDS011;4351;51.422;6.794;2022-08-05T02:36:11;7.40;;;5.37;;
8626;SDS011;4351;51.422;6.794;2022-08-05T02:38:49;8.27;;;5.67;;
8626;SDS011;4351;51.422;6.794;2022-08-05T02:41:24;8.00;;;6.03;;
8626;SDS011;4351;51.422;6.794;2022-08-05T02:44:05;10.73;;;6.57;;
8626;SDS011;4351;51.422;6.794;2022-08-05T02:46:39;10.30;;;5.53;;
8626;SDS011;4351;51.422;6.794;2022-08-05T02:49:43;10.97;;;5.93;;
8626;SDS011;4351;51.422;6.794;2022-08-05T02:52:32;8.33;;;5.00;;
8626;SDS011;4351;51.422;6.794;2022-08-05T02:55:08;11.90;;;6.00;;
8626;SDS011;4351;51.422;6.794;2022-08-05T02:58:06;10.20;;;5.80;;
8626;SDS011;4351;51.422;6.794;2022-08-05T03:00:55;10.63;;;7.07;;
8626;SDS011;4351;51.422;6.794;2022-08-05T03:03:29;8.67;;;5.83;;
8626;SDS011;4351;51.422;6.794;2022-08-05T03:06:21;8.23;;;6.50;;
8626;SDS011;4351;51.422;6.794;2022-08-05T03:09:10;10.93;;;6.33;;
8626;SDS011;4351;51.422;6.794;2022-08-05T03:11:45;15.23;;;7.47;;
8626;SDS011;4351;51.422;6.794;2022-08-05T03:14:26;8.43;;;5.60;;
8626;SDS011;4351;51.422;6.794;2022-08-05T03:16:56;10.57;;;7.07;;
8626;SDS011;4351;51.422;6.794;2022-08-05T03:19:35;11.50;;;7.17;;
8626;SDS011;4351;51.422;6.794;2022-08-05T03:22:07;13.40;;;7.07;;
8626;SDS011;4351;51.422;6.794;2022-08-05T03:24:45;8.47;;;6.60;;
8626;SDS011;4351;51.422;6.794;2022-08-05T03:27:38;8.73;;;5.90;;
8626;SDS011;4351;51.422;6.794;2022-08-05T03:30:26;8.93;;;5.97;;
8626;SDS011;4351;51.422;6.794;2022-08-05T03:33:00;11.53;;;5.93;;
8626;SDS011;4351;51.422;6.794;2022-08-05T03:35:31;9.40;;;5.83;;
8626;SDS011;4351;51.422;6.794;2022-08-05T03:38:13;7.60;;;5.33;;
8626;SDS011;4351;51.422;6.794;2022-08-05T03:40:50;9.60;;;5.90;;
8626;SDS011;4351;51.422;6.794;2022-08-05T03:43:25;10.70;;;5.70;;
8626;SDS011;4351;51.422;6.794;2022-08-05T03:46:19;7.93;;;6.00;;
8626;SDS011;4351;51.422;6.794;2022-08-05T03:48:54;10.37;;;6.33;;
8626;SDS011;4351;51.422;6.794;2022-08-05T03:51:30;9.00;;;5.57;;
8626;SDS011;4351;51.422;6.794;2022-08-05T03:54:39;11.40;;;6.33;;
8626;SDS011;4351;51.422;6.794;2022-08-05T03:57:44;10.33;;;6.10;;
8626;SDS011;4351;51.422;6.794;2022-08-05T04:00:34;10.40;;;6.70;;
8626;SDS011;4351;51.422;6.794;2022-08-05T04:03:07;10.93;;;6.90;;
8626;SDS011;4351;51.422;6.794;2022-08-05T04:05:54;12.23;;;7.50;;
8626;SDS011;4351;51.422;6.794;2022-08-05T04:08:24;11.80;;;7.90;;
8626;SDS011;4351;51.422;6.794;2022-08-05T04:11:02;9.83;;;7.90;;
8626;SDS011;4351;51.422;6.794;2022-08-05T04:13:37;11.07;;;6.67;;
8626;SDS011;4351;51.422;6.794;2022-08-05T04:16:20;9.27;;;6.73;;
8626;SDS011;4351;51.422;6.794;2022-08-05T04:18:58;9.67;;;6.40;;
8626;SDS011;4351;51.422;6.794;2022-08-05T04:21:37;12.40;;;7.67;;
8626;SDS011;4351;51.422;6.794;2022-08-05T04:24:38;10.27;;;6.73;;
8626;SDS011;4351;51.422;6.794;2022-08-05T04:27:10;12.63;;;7.30;;
8626;SDS011;4351;51.422;6.794;2022-08-05T04:29:50;13.07;;;7.87;;
8626;SDS011;4351;51.422;6.794;2022-08-05T04:32:21;11.07;;;7.80;;
8626;SDS011;4351;51.422;6.794;2022-08-05T04:34:58;13.23;;;8.70;;
8626;SDS011;4351;51.422;6.794;2022-08-05T04:37:31;13.03;;;9.00;;
8626;SDS011;4351;51.422;6.794;2022-08-05T04:40:19;14.03;;;10.37;;
8626;SDS011;4351;51.422;6.794;2022-08-05T04:42:48;14.87;;;10.03;;
8626;SDS011;4351;51.422;6.794;2022-08-05T04:49:02;16.03;;;10.97;;
8626;SDS011;4351;51.422;6.794;2022-08-05T04:51:45;12.50;;;10.17;;
8626;SDS011;4351;51.422;6.794;2022-08-05T04:54:44;17.00;;;10.57;;
8626;SDS011;4351;51.422;6.794;2022-08-05T04:57:15;23.13;;;12.60;;
8626;SDS011;4351;51.422;6.794;2022-08-05T04:59:43;15.50;;;11.17;;
8626;SDS011;4351;51.422;6.794;2022-08-05T05:02:13;18.50;;;12.23;;
8626;SDS011;4351;51.422;6.794;2022-08-05T05:05:04;14.27;;;10.50;;
8626;SDS011;4351;51.422;6.794;2022-08-05T05:07:53;16.33;;;11.20;;
8626;SDS011;4351;51.422;6.794;2022-08-05T05:10:27;15.57;;;11.63;;
8626;SDS011;4351;51.422;6.794;2022-08-05T05:13:02;15.50;;;11.30;;
8626;SDS011;4351;51.422;6.794;2022-08-05T05:15:30;14.90;;;10.47;;
8626;SDS011;4351;51.422;6.794;2022-08-05T05:18:34;16.40;;;11.00;;
8626;SDS011;4351;51.422;6.794;2022-08-05T05:21:13;17.27;;;11.67;;
8626;SDS011;4351;51.422;6.794;2022-08-05T05:27:10;11.60;;;10.40;;
8626;SDS011;4351;51.422;6.794;2022-08-05T05:29:45;13.50;;;10.63;;
8626;SDS011;4351;51.422;6.794;2022-08-05T05:32:33;12.80;;;10.87;;
8626;SDS011;4351;51.422;6.794;2022-08-05T05:35:08;15.07;;;11.50;;
8626;SDS011;4351;51.422;6.794;2022-08-05T05:38:10;18.10;;;11.73;;
8626;SDS011;4351;51.422;6.794;2022-08-05T05:40:56;15.37;;;12.43;;
8626;SDS011;4351;51.422;6.794;2022-08-05T05:43:24;16.33;;;12.63;;
8626;SDS011;4351;51.422;6.794;2022-08-05T05:49:17;15.53;;;11.37;;
8626;SDS011;4351;51.422;6.794;2022-08-05T05:52:24;14.57;;;10.93;;
8626;SDS011;4351;51.422;6.794;2022-08-05T05:55:08;14.97;;;11.00;;
8626;SDS011;4351;51.422;6.794;2022-08-05T05:57:40;17.07;;;11.67;;
8626;SDS011;4351;51.422;6.794;2022-08-05T06:00:21;13.50;;;10.80;;
8626;SDS011;4351;51.422;6.794;2022-08-05T06:03:33;17.97;;;12.20;;
8626;SDS011;4351;51.422;6.794;2022-08-05T06:07:02;13.43;;;10.63;;
8626;SDS011;4351;51.422;6.794;2022-08-05T06:09:37;15.00;;;11.53;;
8626;SDS011;4351;51.422;6.794;2022-08-05T06:12:58;16.10;;;10.67;;
8626;SDS011;4351;51.422;6.794;2022-08-05T06:16:01;17.17;;;11.77;;
8626;SDS011;4351;51.422;6.794;2022-08-05T06:19:14;11.93;;;9.67;;
8626;SDS011;4351;51.422;6.794;2022-08-05T06:23:06;11.23;;;9.50;;
8626;SDS011;4351;51.422;6.794;2022-08-05T06:25:51;15.33;;;10.07;;
8626;SDS011;4351;51.422;6.794;2022-08-05T06:28:56;16.23;;;9.67;;
8626;SDS011;4351;51.422;6.794;2022-08-05T06:31:31;16.57;;;9.57;;
8626;SDS011;4351;51.422;6.794;2022-08-05T06:34:22;14.20;;;8.87;;
8626;SDS011;4351;51.422;6.794;2022-08-05T06:36:53;14.40;;;8.10;;
8626;SDS011;4351;51.422;6.794;2022-08-05T06:39:24;11.50;;;7.70;;
8626;SDS011;4351;51.422;6.794;2022-08-05T06:42:04;13.20;;;8.13;;
8626;SDS011;4351;51.422;6.794;2022-08-05T06:44:47;12.23;;;8.43;;
8626;SDS011;4351;51.422;6.794;2022-08-05T06:47:16;11.23;;;7.63;;
8626;SDS011;4351;51.422;6.794;2022-08-05T06:50:08;13.67;;;7.70;;
8626;SDS011;4351;51.422;6.794;2022-08-05T06:53:07;14.17;;;8.87;;
8626;SDS011;4351;51.422;6.794;2022-08-05T06:56:01;11.03;;;8.47;;
8626;SDS011;4351;51.422;6.794;2022-08-05T06:58:57;10.60;;;7.37;;
8626;SDS011;4351;51.422;6.794;2022-08-05T07:01:49;10.87;;;7.00;;
8626;SDS011;4351;51.422;6.794;2022-08-05T07:04:18;13.00;;;7.23;;
8626;SDS011;4351;51.422;6.794;2022-08-05T07:06:49;15.13;;;8.50;;
8626;SDS011;4351;51.422;6.794;2022-08-05T07:09:29;11.30;;;7.73;;
8626;SDS011;4351;51.422;6.794;2022-08-05T07:12:06;12.90;;;7.53;;
8626;SDS011;4351;51.422;6.794;2022-08-05T07:14:57;10.90;;;7.40;;
8626;SDS011;4351;51.422;6.794;2022-08-05T07:18:06;9.07;;;6.10;;
8626;SDS011;4351;51.422;6.794;2022-08-05T07:20:48;12.47;;;5.93;;
8626;SDS011;4351;51.422;6.794;2022-08-05T07:23:16;8.40;;;5.63;;
8626;SDS011;4351;51.422;6.794;2022-08-05T07:25:55;9.53;;;5.63;;
8626;SDS011;4351;51.422;6.794;2022-08-05T07:28:23;10.93;;;6.77;;
8626;SDS011;4351;51.422;6.794;2022-08-05T07:30:52;8.90;;;5.00;;
8626;SDS011;4351;51.422;6.794;2022-08-05T07:33:26;9.67;;;6.63;;
8626;SDS011;4351;51.422;6.794;2022-08-05T07:36:03;9.57;;;6.30;;
8626;SDS011;4351;51.422;6.794;2022-08-05T07:38:47;9.90;;;5.93;;
8626;SDS011;4351;51.422;6.794;2022-08-05T07:41:22;11.03;;;5.10;;
8626;SDS011;4351;51.422;6.794;2022-08-05T07:44:16;11.27;;;5.13;;
8626;SDS011;4351;51.422;6.794;2022-08-05T07:46:46;8.53;;;5.20;;
8626;SDS011;4351;51.422;6.794;2022-08-05T07:49:18;11.03;;;5.47;;
8626;SDS011;4351;51.422;6.794;2022-08-05T07:51:47;6.63;;;4.43;;
8626;SDS011;4351;51.422;6.794;2022-08-05T07:54:24;8.03;;;4.60;;
8626;SDS011;4351;51.422;6.794;2022-08-05T07:57:11;8.13;;;4.43;;
8626;SDS011;4351;51.422;6.794;2022-08-05T08:01:02;10.30;;;4.40;;
8626;SDS011;4351;51.422;6.794;2022-08-05T08:04:49;6.73;;;4.73;;
8626;SDS011;4351;51.422;6.794;2022-08-05T08:08:07;14.13;;;5.67;;
8626;SDS011;4351;51.422;6.794;2022-08-05T08:14:26;10.00;;;5.20;;
8626;SDS011;4351;51.422;6.794;2022-08-05T08:18:41;6.63;;;4.30;;
8626;SDS011;4351;51.422;6.794;2022-08-05T08:24:31;6.33;;;4.00;;
8626;SDS011;4351;51.422;6.794;2022-08-05T08:31:03;9.97;;;4.10;;
8626;SDS011;4351;51.422;6.794;2022-08-05T08:33:40;8.53;;;3.80;;
8626;SDS011;4351;51.422;6.794;2022-08-05T08:45:48;6.93;;;3.93;;
8626;SDS011;4351;51.422;6.794;2022-08-05T09:00:31;9.30;;;4.40;;
8626;SDS011;4351;51.422;6.794;2022-08-05T09:04:26;6.83;;;4.03;;
8626;SDS011;4351;51.422;6.794;2022-08-05T09:07:51;6.63;;;4.13;;
8626;SDS011;4351;51.422;6.794;2022-08-05T09:11:35;8.30;;;3.90;;
8626;SDS011;4351;51.422;6.794;2022-08-05T09:15:33;7.90;;;4.03;;
8626;SDS011;4351;51.422;6.794;2022-08-05T09:24:11;7.20;;;4.47;;
8626;SDS011;4351;51.422;6.794;2022-08-05T09:27:51;6.67;;;4.17;;
8626;SDS011;4351;51.422;6.794;2022-08-05T10:00:57;6.67;;;4.03;;
8626;SDS011;4351;51.422;6.794;2022-08-05T10:03:39;6.77;;;4.10;;
8626;SDS011;4351;51.422;6.794;2022-08-05T10:06:25;8.57;;;3.97;;
8626;SDS011;4351;51.422;6.794;2022-08-05T10:09:08;8.57;;;4.17;;
8626;SDS011;4351;51.422;6.794;2022-08-05T10:11:54;5.17;;;3.30;;
8626;SDS011;4351;51.422;6.794;2022-08-05T10:15:03;7.53;;;3.27;;
8626;SDS011;4351;51.422;6.794;2022-08-05T10:17:44;4.70;;;3.40;;
8626;SDS011;4351;51.422;6.794;2022-08-05T10:20:29;6.07;;;3.80;;
8626;SDS011;4351;51.422;6.794;2022-08-05T10:22:58;7.67;;;3.40;;
8626;SDS011;4351;51.422;6.794;2022-08-05T10:25:28;5.90;;;3.33;;
8626;SDS011;4351;51.422;6.794;2022-08-05T10:27:57;9.00;;;3.70;;
8626;SDS011;4351;51.422;6.794;2022-08-05T10:30:43;5.83;;;3.30;;
8626;SDS011;4351;51.422;6.794;2022-08-05T10:33:33;5.53;;;2.90;;
8626;SDS011;4351;51.422;6.794;2022-08-05T10:36:05;4.07;;;2.47;;
8626;SDS011;4351;51.422;6.794;2022-08-05T10:38:34;5.07;;;3.00;;
8626;SDS011;4351;51.422;6.794;2022-08-05T10:41:12;6.10;;;2.70;;
8626;SDS011;4351;51.422;6.794;2022-08-05T10:43:50;3.67;;;2.40;;
8626;SDS011;4351;51.422;6.794;2022-08-05T10:46:41;3.53;;;2.17;;
8626;SDS011;4351;51.422;6.794;2022-08-05T10:49:11;4.97;;;2.30;;
8626;SDS011;4351;51.422;6.794;2022-08-05T10:51:43;4.17;;;2.07;;
8626;SDS011;4351;51.422;6.794;2022-08-05T10:54:44;4.10;;;2.57;;
8626;SDS011;4351;51.422;6.794;2022-08-05T10:57:24;4.17;;;2.07;;
8626;SDS011;4351;51.422;6.794;2022-08-05T11:00:08;5.80;;;2.80;;
8626;SDS011;4351;51.422;6.794;2022-08-05T11:06:03;3.43;;;2.60;;
8626;SDS011;4351;51.422;6.794;2022-08-05T11:15:21;7.10;;;3.50;;
8626;SDS011;4351;51.422;6.794;2022-08-05T11:21:00;5.70;;;3.10;;
8626;SDS011;4351;51.422;6.794;2022-08-05T11:23:41;9.57;;;2.90;;
8626;SDS011;4351;51.422;6.794;2022-08-05T11:26:38;4.43;;;2.87;;
8626;SDS011;4351;51.422;6.794;2022-08-05T11:29:14;6.67;;;2.83;;
8626;SDS011;4351;51.422;6.794;2022-08-05T11:34:50;7.83;;;3.60;;
8626;SDS011;4351;51.422;6.794;2022-08-05T11:41:00;8.23;;;3.23;;
8626;SDS011;4351;51.422;6.794;2022-08-05T11:43:53;8.27;;;3.63;;
8626;SDS011;4351;51.422;6.794;2022-08-05T11:46:32;6.47;;;3.40;;
8626;SDS011;4351;51.422;6.794;2022-08-05T11:49:03;9.07;;;3.93;;
8626;SDS011;4351;51.422;6.794;2022-08-05T11:51:35;6.33;;;3.50;;
8626;SDS011;4351;51.422;6.794;2022-08-05T11:54:21;6.53;;;3.83;;
8626;SDS011;4351;51.422;6.794;2022-08-05T11:57:02;7.13;;;3.27;;
8626;SDS011;4351;51.422;6.794;2022-08-05T11:59:50;3.37;;;3.03;;
8626;SDS011;4351;51.422;6.794;2022-08-05T12:02:23;6.10;;;4.07;;
8626;SDS011;4351;51.422;6.794;2022-08-05T12:04:57;8.13;;;4.03;;
8626;SDS011;4351;51.422;6.794;2022-08-05T12:07:33;5.73;;;4.10;;
8626;SDS011;4351;51.422;6.794;2022-08-05T12:10:24;5.70;;;4.10;;
8626;SDS011;4351;51.422;6.794;2022-08-05T12:13:13;6.27;;;3.90;;
8626;SDS011;4351;51.422;6.794;2022-08-05T12:16:03;7.13;;;4.70;;
8626;SDS011;4351;51.422;6.794;2022-08-05T12:18:41;7.47;;;4.77;;
8626;SDS011;4351;51.422;6.794;2022-08-05T12:21:19;8.93;;;4.37;;
8626;SDS011;4351;51.422;6.794;2022-08-05T12:23:53;10.03;;;4.80;;
8626;SDS011;4351;51.422;6.794;2022-08-05T12:26:32;6.90;;;4.23;;
8626;SDS011;4351;51.422;6.794;2022-08-05T12:29:04;6.87;;;4.20;;
8626;SDS011;4351;51.422;6.794;2022-08-05T12:31:37;5.90;;;3.57;;
8626;SDS011;4351;51.422;6.794;2022-08-05T12:34:19;7.13;;;2.80;;
8626;SDS011;4351;51.422;6.794;2022-08-05T12:36:52;6.47;;;3.70;;
8626;SDS011;4351;51.422;6.794;2022-08-05T12:39:22;6.70;;;4.30;;
8626;SDS011;4351;51.422;6.794;2022-08-05T12:42:03;6.40;;;4.40;;
8626;SDS011;4351;51.422;6.794;2022-08-05T12:44:42;8.63;;;4.30;;
8626;SDS011;4351;51.422;6.794;2022-08-05T12:47:23;7.17;;;4.23;;
8626;SDS011;4351;51.422;6.794;2022-08-05T12:49:56;5.57;;;3.60;;
8626;SDS011;4351;51.422;6.794;2022-08-05T12:52:31;6.90;;;3.23;;
8626;SDS011;4351;51.422;6.794;2022-08-05T12:55:17;10.37;;;3.90;;
8626;SDS011;4351;51.422;6.794;2022-08-05T12:57:51;5.30;;;3.30;;
8626;SDS011;4351;51.422;6.794;2022-08-05T13:00:42;6.67;;;3.57;;
8626;SDS011;4351;51.422;6.794;2022-08-05T13:03:33;5.70;;;3.47;;
8626;SDS011;4351;51.422;6.794;2022-08-05T13:06:12;5.17;;;3.33;;
8626;SDS011;4351;51.422;6.794;2022-08-05T13:08:43;6.77;;;3.23;;
8626;SDS011;4351;51.422;6.794;2022-08-05T13:11:18;7.87;;;3.60;;
8626;SDS011;4351;51.422;6.794;2022-08-05T13:14:13;5.30;;;2.67;;
8626;SDS011;4351;51.422;6.794;2022-08-05T13:16:47;5.77;;;2.50;;
8626;SDS011;4351;51.422;6.794;2022-08-05T13:19:23;5.20;;;2.50;;
8626;SDS011;4351;51.422;6.794;2022-08-05T13:22:16;5.07;;;2.53;;
8626;SDS011;4351;51.422;6.794;2022-08-05T13:24:56;4.47;;;2.43;;
8626;SDS011;4351;51.422;6.794;2022-08-05T13:27:31;6.70;;;2.60;;
8626;SDS011;4351;51.422;6.794;2022-08-05T13:30:04;5.20;;;2.30;;
8626;SDS011;4351;51.422;6.794;2022-08-05T13:32:55;4.20;;;2.40;;
8626;SDS011;4351;51.422;6.794;2022-08-05T13:35:27;5.13;;;2.30;;
8626;SDS011;4351;51.422;6.794;2022-08-05T13:38:13;4.30;;;2.20;;
8626;SDS011;4351;51.422;6.794;2022-08-05T13:40:57;5.33;;;2.37;;
8626;SDS011;4351;51.422;6.794;2022-08-05T13:43:25;5.33;;;2.17;;
8626;SDS011;4351;51.422;6.794;2022-08-05T13:46:14;3.70;;;1.87;;
8626;SDS011;4351;51.422;6.794;2022-08-05T13:49:04;6.77;;;2.00;;
8626;SDS011;4351;51.422;6.794;2022-08-05T13:51:37;4.30;;;2.00;;
8626;SDS011;4351;51.422;6.794;2022-08-05T13:54:12;5.00;;;1.90;;
8626;SDS011;4351;51.422;6.794;2022-08-05T13:56:42;3.30;;;2.30;;
8626;SDS011;4351;51.422;6.794;2022-08-05T13:59:17;2.87;;;1.90;;
8626;SDS011;4351;51.422;6.794;2022-08-05T14:01:50;4.67;;;2.10;;
8626;SDS011;4351;51.422;6.794;2022-08-05T14:04:26;3.53;;;1.93;;
8626;SDS011;4351;51.422;6.794;2022-08-05T14:07:17;3.87;;;1.83;;
8626;SDS011;4351;51.422;6.794;2022-08-05T14:10:07;3.13;;;1.60;;
8626;SDS011;4351;51.422;6.794;2022-08-05T14:12:36;1.50;;;1.20;;
8626;SDS011;4351;51.422;6.794;2022-08-05T14:15:05;6.13;;;1.53;;
8626;SDS011;4351;51.422;6.794;2022-08-05T14:17:54;4.90;;;1.60;;
8626;SDS011;4351;51.422;6.794;2022-08-05T14:20:26;6.37;;;1.90;;
8626;SDS011;4351;51.422;6.794;2022-08-05T14:22:55;2.03;;;1.40;;
8626;SDS011;4351;51.422;6.794;2022-08-05T14:25:23;6.03;;;1.60;;
8626;SDS011;4351;51.422;6.794;2022-08-05T14:27:55;3.60;;;1.13;;
8626;SDS011;4351;51.422;6.794;2022-08-05T14:30:24;5.23;;;1.30;;
8626;SDS011;4351;51.422;6.794;2022-08-05T14:32:55;4.63;;;1.63;;
8626;SDS011;4351;51.422;6.794;2022-08-05T14:35:24;2.60;;;1.07;;
8626;SDS011;4351;51.422;6.794;2022-08-05T14:38:13;2.47;;;0.97;;
8626;SDS011;4351;51.422;6.794;2022-08-05T14:41:01;2.90;;;1.10;;
8626;SDS011;4351;51.422;6.794;2022-08-05T14:43:33;3.93;;;1.00;;
8626;SDS011;4351;51.422;6.794;2022-08-05T14:46:22;2.30;;;0.90;;
8626;SDS011;4351;51.422;6.794;2022-08-05T14:48:54;2.53;;;1.00;;
8626;SDS011;4351;51.422;6.794;2022-08-05T14:51:25;3.03;;;0.90;;
8626;SDS011;4351;51.422;6.794;2022-08-05T14:53:59;4.07;;;1.20;;
8626;SDS011;4351;51.422;6.794;2022-08-05T14:56:50;1.57;;;0.80;;
8626;SDS011;4351;51.422;6.794;2022-08-05T14:59:20;1.77;;;0.80;;
8626;SDS011;4351;51.422;6.794;2022-08-05T15:01:48;1.97;;;0.97;;
8626;SDS011;4351;51.422;6.794;2022-08-05T15:04:19;2.87;;;0.87;;
8626;SDS011;4351;51.422;6.794;2022-08-05T15:06:48;4.80;;;1.70;;
8626;SDS011;4351;51.422;6.794;2022-08-05T15:09:21;2.80;;;1.53;;
8626;SDS011;4351;51.422;6.794;2022-08-05T15:12:11;3.00;;;0.90;;
8626;SDS011;4351;51.422;6.794;2022-08-05T15:14:43;2.57;;;1.00;;
8626;SDS011;4351;51.422;6.794;2022-08-05T15:17:18;1.00;;;0.70;;
8626;SDS011;4351;51.422;6.794;2022-08-05T15:20:07;1.73;;;0.60;;
8626;SDS011;4351;51.422;6.794;2022-08-05T15:22:45;2.60;;;0.80;;
8626;SDS011;4351;51.422;6.794;2022-08-05T15:25:22;2.27;;;0.70;;
8626;SDS011;4351;51.422;6.794;2022-08-05T15:28:12;0.77;;;0.50;;
8626;SDS011;4351;51.422;6.794;2022-08-05T15:30:41;2.07;;;0.70;;
8626;SDS011;4351;51.422;6.794;2022-08-05T15:33:11;1.83;;;0.77;;
8626;SDS011;4351;51.422;6.794;2022-08-05T15:36:00;1.83;;;0.80;;
8626;SDS011;4351;51.422;6.794;2022-08-05T15:38:29;1.97;;;0.80;;
8626;SDS011;4351;51.422;6.794;2022-08-05T15:41:07;3.20;;;0.70;;
8626;SDS011;4351;51.422;6.794;2022-08-05T15:43:50;1.17;;;0.80;;
8626;SDS011;4351;51.422;6.794;2022-08-05T15:46:20;1.20;;;0.70;;
8626;SDS011;4351;51.422;6.794;2022-08-05T15:48:50;3.95;;;1.00;;
8626;SDS011;4351;51.422;6.794;2022-08-05T15:51:35;3.23;;;0.90;;
8626;SDS011;4351;51.422;6.794;2022-08-05T15:54:23;2.60;;;0.70;;
8626;SDS011;4351;51.422;6.794;2022-08-05T15:57:04;3.60;;;0.80;;
8626;SDS011;4351;51.422;6.794;2022-08-05T15:59:33;2.13;;;0.73;;
8626;SDS011;4351;51.422;6.794;2022-08-05T16:02:03;1.63;;;0.90;;
8626;SDS011;4351;51.422;6.794;2022-08-05T16:04:40;1.50;;;0.83;;
8626;SDS011;4351;51.422;6.794;2022-08-05T16:07:09;2.57;;;1.00;;
8626;SDS011;4351;51.422;6.794;2022-08-05T16:09:39;1.93;;;0.80;;
8626;SDS011;4351;51.422;6.794;2022-08-05T16:12:10;2.73;;;1.00;;
8626;SDS011;4351;51.422;6.794;2022-08-05T16:14:40;1.20;;;0.80;;
8626;SDS011;4351;51.422;6.794;2022-08-05T16:17:09;1.23;;;0.90;;
8626;SDS011;4351;51.422;6.794;2022-08-05T16:19:38;2.77;;;0.77;;
8626;SDS011;4351;51.422;6.794;2022-08-05T16:22:26;4.43;;;0.90;;
8626;SDS011;4351;51.422;6.794;2022-08-05T16:25:00;1.90;;;0.90;;
8626;SDS011;4351;51.422;6.794;2022-08-05T16:27:37;2.03;;;1.10;;
8626;SDS011;4351;51.422;6.794;2022-08-05T16:30:25;4.43;;;1.10;;
8626;SDS011;4351;51.422;6.794;2022-08-05T16:32:54;2.37;;;1.00;;
8626;SDS011;4351;51.422;6.794;2022-08-05T16:35:24;4.73;;;1.00;;
8626;SDS011;4351;51.422;6.794;2022-08-05T16:38:08;3.30;;;1.10;;
8626;SDS011;4351;51.422;6.794;2022-08-05T16:40:50;2.27;;;0.80;;
8626;SDS011;4351;51.422;6.794;2022-08-05T16:43:27;1.57;;;0.90;;
8626;SDS011;4351;51.422;6.794;2022-08-05T16:45:56;2.87;;;1.23;;
8626;SDS011;4351;51.422;6.794;2022-08-05T16:48:38;1.73;;;0.70;;
8626;SDS011;4351;51.422;6.794;2022-08-05T16:51:06;2.33;;;0.90;;
8626;SDS011;4351;51.422;6.794;2022-08-05T16:53:37;5.33;;;2.47;;
8626;SDS011;4351;51.422;6.794;2022-08-05T16:56:26;3.13;;;1.60;;
8626;SDS011;4351;51.422;6.794;2022-08-05T16:58:57;4.93;;;1.20;;
8626;SDS011;4351;51.422;6.794;2022-08-05T17:01:34;3.57;;;1.50;;
8626;SDS011;4351;51.422;6.794;2022-08-05T17:04:20;2.23;;;0.97;;
8626;SDS011;4351;51.422;6.794;2022-08-05T17:06:52;3.07;;;0.90;;
8626;SDS011;4351;51.422;6.794;2022-08-05T17:09:25;1.33;;;0.90;;
8626;SDS011;4351;51.422;6.794;2022-08-05T17:11:55;4.13;;;1.10;;
8626;SDS011;4351;51.422;6.794;2022-08-05T17:14:27;1.77;;;1.00;;
8626;SDS011;4351;51.422;6.794;2022-08-05T17:17:04;3.07;;;0.90;;
8626;SDS011;4351;51.422;6.794;2022-08-05T17:19:40;2.40;;;1.00;;
8626;SDS011;4351;51.422;6.794;2022-08-05T17:22:12;2.43;;;0.90;;
8626;SDS011;4351;51.422;6.794;2022-08-05T17:24:51;2.83;;;1.10;;
8626;SDS011;4351;51.422;6.794;2022-08-05T17:27:24;2.00;;;0.73;;
8626;SDS011;4351;51.422;6.794;2022-08-05T17:30:01;0.83;;;0.70;;
8626;SDS011;4351;51.422;6.794;2022-08-05T17:32:51;1.50;;;0.90;;
8626;SDS011;4351;51.422;6.794;2022-08-05T17:35:19;3.73;;;1.10;;
8626;SDS011;4351;51.422;6.794;2022-08-05T17:37:48;1.63;;;0.87;;
8626;SDS011;4351;51.422;6.794;2022-08-05T17:40:16;1.47;;;0.80;;
8626;SDS011;4351;51.422;6.794;2022-08-05T17:42:48;2.00;;;0.80;;
8626;SDS011;4351;51.422;6.794;2022-08-05T17:45:20;2.20;;;0.90;;
8626;SDS011;4351;51.422;6.794;2022-08-05T17:47:55;3.20;;;1.10;;
8626;SDS011;4351;51.422;6.794;2022-08-05T17:50:23;2.37;;;0.90;;
8626;SDS011;4351;51.422;6.794;2022-08-05T17:52:59;2.63;;;0.90;;
8626;SDS011;4351;51.422;6.794;2022-08-05T17:55:30;1.53;;;0.90;;
8626;SDS011;4351;51.422;6.794;2022-08-05T17:58:06;3.63;;;1.00;;
8626;SDS011;4351;51.422;6.794;2022-08-05T18:00:39;3.07;;;0.97;;
8626;SDS011;4351;51.422;6.794;2022-08-05T18:03:13;3.20;;;0.87;;
8626;SDS011;4351;51.422;6.794;2022-08-05T18:06:03;3.47;;;0.77;;
8626;SDS011;4351;51.422;6.794;2022-08-05T18:08:40;1.90;;;0.90;;
8626;SDS011;4351;51.422;6.794;2022-08-05T18:11:11;1.27;;;0.90;;
8626;SDS011;4351;51.422;6.794;2022-08-05T18:13:50;1.47;;;0.70;;
8626;SDS011;4351;51.422;6.794;2022-08-05T18:16:20;3.30;;;0.97;;
8626;SDS011;4351;51.422;6.794;2022-08-05T18:18:48;1.40;;;0.90;;
8626;SDS011;4351;51.422;6.794;2022-08-05T18:21:17;2.47;;;0.80;;
8626;SDS011;4351;51.422;6.794;2022-08-05T18:23:51;2.90;;;1.10;;
8626;SDS011;4351;51.422;6.794;2022-08-05T18:26:20;1.63;;;0.90;;
8626;SDS011;4351;51.422;6.794;2022-08-05T18:28:55;1.23;;;0.80;;
8626;SDS011;4351;51.422;6.794;2022-08-05T18:31:25;1.83;;;1.03;;
8626;SDS011;4351;51.422;6.794;2022-08-05T18:34:01;1.87;;;1.07;;
8626;SDS011;4351;51.422;6.794;2022-08-05T18:36:37;1.50;;;0.97;;
8626;SDS011;4351;51.422;6.794;2022-08-05T18:39:06;2.70;;;1.30;;
8626;SDS011;4351;51.422;6.794;2022-08-05T18:41:54;3.47;;;1.20;;
8626;SDS011;4351;51.422;6.794;2022-08-05T18:44:33;3.93;;;1.10;;